Time;durP1;ratioP1;P1;durP2;ratioP2;P2;SDS_P1;SDS_P2;PMS_P1;PMS_P2;Temp;Humidity;BMP_temperature;BMP_pressure;BME280_temperature;BME280_humidity;BME280_pressure;Samples;Min_cycle;Max_cycle;Signal;HPM_P1;HPM_P2
2023/04/27 00:01:48;;;;;;;8.10;4.35;;;7.70;99.90;;;;;;5014361;28;20037;-47
2023/04/27 00:04:13;;;;;;;9.90;4.75;;;7.70;99.90;;;;;;4996894;28;20462;-48
2023/04/27 00:06:39;;;;;;;9.38;4.97;;;7.70;99.90;;;;;;4996682;28;20482;-48
2023/04/27 00:09:04;;;;;;;12.57;4.32;;;7.70;99.90;;;;;;5014224;28;20053;-47
2023/04/27 00:11:30;;;;;;;7.65;4.07;;;7.70;99.90;;;;;;5013892;28;20033;-51
2023/04/27 00:13:56;;;;;;;8.25;4.07;;;7.70;99.90;;;;;;5014073;28;20099;-48
2023/04/27 00:16:22;;;;;;;11.73;4.65;;;7.70;99.90;;;;;;5013898;28;20088;-48
2023/04/27 00:18:47;;;;;;;10.85;4.10;;;7.60;99.90;;;;;;5013854;28;20026;-47
2023/04/27 00:21:13;;;;;;;6.50;3.63;;;7.60;99.90;;;;;;5014492;28;20049;-48
2023/04/27 00:23:38;;;;;;;11.10;4.50;;;7.50;99.90;;;;;;5014217;28;20033;-48
2023/04/27 00:26:04;;;;;;;9.60;5.00;;;7.50;99.90;;;;;;5013864;28;20030;-47
2023/04/27 00:28:29;;;;;;;7.35;4.82;;;7.50;99.90;;;;;;5013793;28;20029;-48
2023/04/27 00:30:55;;;;;;;13.43;4.75;;;7.50;99.90;;;;;;5013715;28;20497;-51
2023/04/27 00:33:20;;;;;;;7.40;4.40;;;7.50;99.90;;;;;;5014514;28;20053;-47
2023/04/27 00:35:46;;;;;;;8.80;5.05;;;7.40;99.90;;;;;;4996013;28;20068;-47
2023/04/27 00:38:12;;;;;;;13.13;5.30;;;7.40;99.90;;;;;;5013698;28;20428;-47
2023/04/27 00:40:38;;;;;;;13.30;5.05;;;7.40;99.90;;;;;;5013440;28;20105;-50
2023/04/27 00:43:03;;;;;;;10.13;4.65;;;7.40;99.90;;;;;;5013552;28;20022;-46
2023/04/27 00:45:29;;;;;;;8.13;4.88;;;7.40;99.90;;;;;;5013692;28;20095;-47
2023/04/27 00:47:55;;;;;;;10.15;5.00;;;7.40;99.90;;;;;;5013584;28;20569;-47
2023/04/27 00:50:31;;;;;;;7.70;4.35;;;7.40;99.90;;;;;;5012583;28;20026;-48
2023/04/27 00:52:56;;;;;;;12.77;5.15;;;7.40;99.90;;;;;;5013576;28;20076;-52
2023/04/27 00:55:23;;;;;;;12.70;4.82;;;7.30;99.90;;;;;;5013354;28;20026;-51
2023/04/27 00:57:48;;;;;;;6.97;4.03;;;7.20;99.90;;;;;;5014211;28;20536;-47
2023/04/27 01:00:14;;;;;;;7.93;4.30;;;7.20;99.90;;;;;;5013228;28;20034;-48
2023/04/27 01:02:41;;;;;;;10.10;4.78;;;7.20;99.90;;;;;;5013496;28;20041;-48
2023/04/27 01:05:07;;;;;;;12.82;5.72;;;7.10;99.90;;;;;;5012889;28;20068;-47
2023/04/27 01:07:37;;;;;;;9.77;4.75;;;7.10;99.90;;;;;;5013554;28;20470;-44
2023/04/27 01:10:03;;;;;;;9.93;5.00;;;7.10;99.90;;;;;;5012978;28;20018;-50
2023/04/27 01:12:29;;;;;;;11.82;4.15;;;7.10;99.90;;;;;;5013189;28;20032;-47
2023/04/27 01:14:55;;;;;;;9.32;4.63;;;7.10;99.90;;;;;;5013010;28;20461;-49
2023/04/27 01:17:20;;;;;;;10.43;5.22;;;7.10;99.90;;;;;;5013248;28;20030;-47
2023/04/27 01:19:46;;;;;;;11.90;5.10;;;7.10;99.90;;;;;;5012551;28;20053;-47
2023/04/27 01:22:14;;;;;;;12.20;4.30;;;7.10;99.90;;;;;;5013175;28;20033;-46
2023/04/27 01:24:40;;;;;;;9.48;5.07;;;7.10;99.90;;;;;;5012928;28;20041;-43
2023/04/27 01:27:05;;;;;;;9.88;4.07;;;7.10;99.90;;;;;;5012929;28;20057;-48
2023/04/27 01:29:31;;;;;;;8.60;4.30;;;7.10;99.90;;;;;;5012631;28;20472;-51
2023/04/27 01:31:57;;;;;;;8.98;4.85;;;7.00;99.90;;;;;;5013034;28;20051;-48
2023/04/27 01:34:22;;;;;;;9.00;4.60;;;7.00;99.90;;;;;;5012805;28;20021;-48
2023/04/27 01:36:48;;;;;;;12.25;5.22;;;6.90;99.90;;;;;;5012605;28;20394;-49
2023/04/27 01:39:13;;;;;;;13.77;5.47;;;6.90;99.90;;;;;;5012668;28;20538;-44
2023/04/27 01:41:39;;;;;;;9.25;4.93;;;6.90;99.90;;;;;;5013015;28;20053;-47
2023/04/27 01:44:05;;;;;;;9.88;4.68;;;6.80;99.90;;;;;;5012670;28;20034;-44
2023/04/27 01:46:31;;;;;;;6.43;4.55;;;6.80;99.90;;;;;;5012624;28;20056;-46
2023/04/27 01:48:56;;;;;;;9.00;5.43;;;6.80;99.90;;;;;;5012889;28;20489;-46
2023/04/27 01:51:22;;;;;;;8.30;4.18;;;6.80;99.90;;;;;;5012675;28;20022;-51
2023/04/27 01:53:48;;;;;;;9.00;4.50;;;6.70;99.90;;;;;;5012407;28;20022;-47
2023/04/27 01:56:13;;;;;;;9.63;5.10;;;6.70;99.90;;;;;;5013675;28;20061;-45
2023/04/27 01:58:39;;;;;;;17.30;5.35;;;6.70;99.90;;;;;;5014264;28;20381;-46
2023/04/27 02:01:04;;;;;;;8.35;5.05;;;6.70;99.90;;;;;;5013314;28;20041;-49
2023/04/27 02:03:30;;;;;;;10.32;4.78;;;6.70;99.90;;;;;;5012329;28;20088;-50
2023/04/27 02:05:55;;;;;;;8.95;4.63;;;6.70;99.90;;;;;;5012188;28;20465;-49
2023/04/27 02:08:21;;;;;;;8.57;5.25;;;6.60;99.90;;;;;;5012211;28;20029;-47
2023/04/27 02:10:46;;;;;;;14.93;4.97;;;6.60;99.90;;;;;;5011997;28;20393;-47
2023/04/27 02:13:12;;;;;;;10.43;4.88;;;6.60;99.90;;;;;;5012020;28;20033;-47
2023/04/27 02:15:37;;;;;;;7.90;5.75;;;6.60;99.90;;;;;;5011699;28;20022;-50
2023/04/27 02:18:03;;;;;;;12.18;5.28;;;6.50;99.90;;;;;;5012117;28;20028;-49
2023/04/27 02:20:30;;;;;;;7.80;5.47;;;6.50;99.90;;;;;;5011531;28;20037;-44
2023/04/27 02:22:56;;;;;;;12.27;5.28;;;6.40;99.90;;;;;;5011944;28;20113;-48
2023/04/27 02:25:21;;;;;;;6.88;4.70;;;6.40;99.90;;;;;;5011844;28;20029;-48
2023/04/27 02:27:47;;;;;;;10.65;5.07;;;6.30;99.90;;;;;;5012036;28;20029;-47
2023/04/27 02:30:13;;;;;;;9.75;5.75;;;6.30;99.90;;;;;;4994172;28;20503;-43
2023/04/27 02:32:40;;;;;;;11.13;5.45;;;6.30;99.90;;;;;;5012385;28;20116;-46
2023/04/27 02:35:06;;;;;;;10.10;4.88;;;6.30;99.90;;;;;;5011612;28;20509;-49
2023/04/27 02:37:32;;;;;;;9.52;4.78;;;6.30;99.90;;;;;;5011664;28;20101;-48
2023/04/27 02:39:58;;;;;;;9.63;5.25;;;6.20;99.90;;;;;;5011617;28;20037;-49
2023/04/27 02:42:24;;;;;;;6.40;4.75;;;6.30;99.90;;;;;;5011750;28;20101;-52
2023/04/27 02:44:49;;;;;;;8.27;4.60;;;6.20;99.90;;;;;;5011621;28;20026;-47
2023/04/27 02:47:16;;;;;;;9.95;4.95;;;6.20;99.90;;;;;;5012647;28;20517;-49
2023/04/27 02:49:42;;;;;;;10.73;5.47;;;6.20;99.90;;;;;;5011767;28;20033;-51
2023/04/27 02:52:08;;;;;;;8.38;5.78;;;6.10;99.90;;;;;;5011382;28;20026;-48
2023/04/27 02:54:34;;;;;;;6.95;4.15;;;6.10;99.90;;;;;;5011653;28;20084;-47
2023/04/27 02:57:00;;;;;;;7.13;5.00;;;6.10;99.90;;;;;;5011372;28;20038;-47
2023/04/27 02:59:25;;;;;;;9.60;5.78;;;6.10;99.90;;;;;;5011394;28;20036;-47
2023/04/27 03:01:51;;;;;;;12.80;5.05;;;6.00;99.90;;;;;;5011593;28;20026;-48
2023/04/27 03:04:16;;;;;;;8.93;5.28;;;6.00;99.90;;;;;;5011539;28;20022;-49
2023/04/27 03:06:43;;;;;;;10.48;4.95;;;6.00;99.90;;;;;;5011534;28;20033;-48
2023/04/27 03:09:14;;;;;;;17.05;5.68;;;5.90;99.90;;;;;;5011330;28;20478;-47
2023/04/27 03:11:39;;;;;;;10.75;5.80;;;6.00;99.90;;;;;;4993821;28;20442;-48
2023/04/27 03:14:05;;;;;;;7.95;5.07;;;5.90;99.90;;;;;;4998021;28;20065;-47
2023/04/27 03:16:31;;;;;;;12.18;5.95;;;5.90;99.90;;;;;;5015289;28;20109;-47
2023/04/27 03:18:57;;;;;;;8.45;5.15;;;5.90;99.90;;;;;;4997251;28;20455;-47
2023/04/27 03:21:23;;;;;;;13.10;5.82;;;6.00;99.90;;;;;;4997549;28;20128;-47
2023/04/27 03:23:48;;;;;;;11.32;5.30;;;6.00;99.90;;;;;;5015264;28;20084;-50
2023/04/27 03:26:14;;;;;;;11.27;5.93;;;6.00;99.90;;;;;;5014842;28;20058;-50
2023/04/27 03:28:40;;;;;;;8.52;5.88;;;6.00;99.90;;;;;;5015188;28;20018;-50
2023/04/27 03:31:08;;;;;;;10.60;5.47;;;6.00;99.90;;;;;;5014966;28;20382;-48
2023/04/27 03:33:34;;;;;;;8.63;5.00;;;6.00;99.90;;;;;;5015128;28;20127;-51
2023/04/27 03:35:59;;;;;;;14.95;6.32;;;5.90;99.90;;;;;;5014823;28;20506;-47
2023/04/27 03:38:25;;;;;;;13.50;6.50;;;5.90;99.90;;;;;;5015008;28;20104;-47
2023/04/27 03:40:52;;;;;;;8.55;5.20;;;5.90;99.90;;;;;;5014814;28;20022;-47
2023/04/27 03:43:18;;;;;;;11.68;6.38;;;5.90;99.90;;;;;;5014869;28;20115;-47
2023/04/27 03:45:44;;;;;;;10.25;5.60;;;6.00;99.90;;;;;;5014777;28;20029;-47
2023/04/27 03:48:09;;;;;;;11.43;5.40;;;5.90;99.90;;;;;;5014837;28;20052;-49
2023/04/27 03:50:35;;;;;;;8.88;5.80;;;5.90;99.90;;;;;;5014636;28;20096;-51
2023/04/27 03:53:00;;;;;;;10.15;5.10;;;5.90;99.90;;;;;;5014736;28;20030;-50
2023/04/27 03:55:26;;;;;;;10.55;6.95;;;5.80;99.90;;;;;;5014563;28;20030;-48
2023/04/27 03:57:51;;;;;;;11.00;5.82;;;5.80;99.90;;;;;;5014696;28;20072;-47
2023/04/27 04:00:17;;;;;;;7.53;5.45;;;5.70;99.90;;;;;;5014395;28;20030;-44
2023/04/27 04:02:43;;;;;;;10.10;5.95;;;5.70;99.90;;;;;;4997149;28;20022;-53
2023/04/27 04:05:09;;;;;;;11.45;5.05;;;5.70;99.90;;;;;;5014369;28;20021;-50
2023/04/27 04:07:35;;;;;;;9.32;5.53;;;5.80;99.90;;;;;;5014454;28;20031;-50
2023/04/27 04:10:01;;;;;;;15.15;6.07;;;5.70;99.90;;;;;;5014309;28;20021;-51
2023/04/27 04:12:26;;;;;;;9.50;6.00;;;5.70;99.90;;;;;;5014406;28;20363;-51
2023/04/27 04:14:52;;;;;;;11.93;5.93;;;5.80;99.90;;;;;;5014203;28;20033;-48
2023/04/27 04:17:18;;;;;;;7.95;6.22;;;5.70;99.90;;;;;;5014213;28;20033;-51
2023/04/27 04:19:43;;;;;;;12.80;6.43;;;5.70;99.90;;;;;;5013655;28;20083;-49
2023/04/27 04:22:09;;;;;;;12.30;6.38;;;5.80;99.90;;;;;;5015277;28;20370;-49
2023/04/27 04:24:35;;;;;;;11.10;6.35;;;5.70;99.90;;;;;;5012953;28;20034;-47
2023/04/27 04:27:01;;;;;;;10.75;5.60;;;5.70;99.90;;;;;;5014080;28;20025;-48
2023/04/27 04:29:27;;;;;;;10.60;6.22;;;5.70;99.90;;;;;;5013872;28;20022;-47
2023/04/27 04:31:54;;;;;;;9.63;5.75;;;5.60;99.90;;;;;;5014058;28;20565;-48
2023/04/27 04:34:20;;;;;;;8.65;5.75;;;5.60;99.90;;;;;;5013963;28;20034;-48
2023/04/27 04:36:46;;;;;;;11.10;6.07;;;5.60;99.90;;;;;;5013573;28;20018;-43
2023/04/27 04:39:12;;;;;;;8.73;6.00;;;5.60;99.90;;;;;;5013829;28;20389;-48
2023/04/27 04:41:37;;;;;;;13.20;6.43;;;5.60;99.90;;;;;;5013587;28;20025;-48
2023/04/27 04:44:04;;;;;;;7.22;4.97;;;5.60;99.90;;;;;;5014083;28;20551;-47
2023/04/27 04:46:29;;;;;;;9.77;5.90;;;5.60;99.90;;;;;;5013567;28;20061;-48
2023/04/27 04:48:55;;;;;;;10.93;5.68;;;5.60;99.90;;;;;;5013630;28;20070;-47
2023/04/27 04:51:21;;;;;;;11.77;5.88;;;5.70;99.90;;;;;;5013580;28;20506;-47
2023/04/27 04:53:46;;;;;;;9.55;5.90;;;5.70;99.90;;;;;;5013653;28;20030;-47
2023/04/27 04:56:13;;;;;;;6.70;5.45;;;5.90;99.90;;;;;;5013428;28;20631;-49
2023/04/27 04:58:39;;;;;;;10.15;6.60;;;5.80;99.90;;;;;;5013440;28;20509;-49
2023/04/27 05:01:05;;;;;;;12.98;7.15;;;5.80;99.90;;;;;;5013348;28;20177;-47
2023/04/27 05:03:31;;;;;;;8.95;6.07;;;5.90;99.90;;;;;;5013352;28;20018;-50
2023/04/27 05:05:56;;;;;;;9.23;5.60;;;5.90;99.90;;;;;;5013168;28;20029;-48
2023/04/27 05:08:22;;;;;;;13.27;7.32;;;5.90;99.90;;;;;;5013382;28;20509;-50
2023/04/27 05:10:52;;;;;;;8.75;5.85;;;5.90;99.90;;;;;;5012783;28;20030;-46
2023/04/27 05:13:17;;;;;;;8.95;5.90;;;5.90;99.90;;;;;;5013232;28;20049;-47
2023/04/27 05:15:43;;;;;;;9.85;5.18;;;6.10;99.90;;;;;;5013206;28;20621;-48
2023/04/27 05:18:08;;;;;;;8.85;4.60;;;6.70;99.90;;;;;;5013467;28;20443;-48
2023/04/27 05:20:34;;;;;;;5.57;4.97;;;7.30;99.90;;;;;;5012502;28;20038;-50
2023/04/27 05:23:00;;;;;;;12.18;5.43;;;7.80;99.90;;;;;;5012995;28;20032;-47
2023/04/27 05:25:28;;;;;;;9.85;5.05;;;8.50;99.90;;;;;;5013141;28;20176;-47
2023/04/27 05:27:54;;;;;;;9.48;4.53;;;8.90;99.90;;;;;;5013343;28;20064;-52
2023/04/27 05:30:20;;;;;;;5.97;3.92;;;9.70;99.90;;;;;;5012847;28;20065;-50
2023/04/27 05:32:45;;;;;;;7.88;4.63;;;10.20;99.90;;;;;;5013219;28;20022;-49
2023/04/27 05:35:11;;;;;;;8.38;4.85;;;10.60;99.90;;;;;;5012154;28;20022;-48
2023/04/27 05:37:36;;;;;;;9.73;3.78;;;10.90;99.90;;;;;;5012736;28;20022;-50
2023/04/27 05:40:04;;;;;;;16.23;4.28;;;11.60;99.90;;;;;;5012583;28;20038;-51
2023/04/27 05:42:30;;;;;;;10.13;3.95;;;11.10;99.30;;;;;;5012696;28;20025;-50
2023/04/27 05:44:55;;;;;;;9.00;4.30;;;11.50;99.40;;;;;;5012497;28;20022;-50
2023/04/27 05:47:21;;;;;;;5.00;3.58;;;11.80;98.60;;;;;;5012298;28;20029;-51
2023/04/27 05:49:53;;;;;;;7.50;3.97;;;11.60;98.10;;;;;;5012531;28;20123;-49
2023/04/27 05:52:19;;;;;;;8.02;3.13;;;11.60;97.70;;;;;;5012439;28;20030;-50
2023/04/27 05:54:48;;;;;;;7.70;3.22;;;11.90;97.50;;;;;;5012277;28;20034;-48
2023/04/27 05:57:14;;;;;;;7.95;3.75;;;11.90;97.70;;;;;;5012461;28;20029;-48
2023/04/27 05:59:40;;;;;;;7.07;3.17;;;12.00;96.70;;;;;;5012116;28;20033;-47
2023/04/27 06:02:06;;;;;;;7.47;3.55;;;11.30;97.20;;;;;;5012366;28;20026;-49
2023/04/27 06:04:32;;;;;;;5.60;3.03;;;11.20;98.20;;;;;;5012419;28;20032;-49
2023/04/27 06:06:58;;;;;;;5.68;3.17;;;11.80;98.30;;;;;;5012270;28;20029;-50
2023/04/27 06:09:24;;;;;;;12.73;3.50;;;11.60;97.30;;;;;;5012532;28;20034;-49
2023/04/27 06:11:49;;;;;;;8.02;3.80;;;11.80;98.10;;;;;;5012586;28;20084;-46
2023/04/27 06:14:15;;;;;;;6.82;3.53;;;12.00;96.90;;;;;;5012524;28;20030;-46
2023/04/27 06:16:41;;;;;;;5.40;3.00;;;12.00;96.90;;;;;;5011922;28;20563;-46
2023/04/27 06:19:06;;;;;;;5.55;3.30;;;12.60;96.50;;;;;;5011690;28;20104;-48
2023/04/27 06:21:32;;;;;;;4.88;3.20;;;12.50;95.50;;;;;;5012673;28;20025;-50
2023/04/27 06:23:59;;;;;;;9.05;3.30;;;12.20;96.00;;;;;;5012083;28;20050;-51
2023/04/27 06:26:25;;;;;;;7.70;2.97;;;12.40;96.20;;;;;;5011667;28;20022;-48
2023/04/27 06:28:50;;;;;;;6.50;2.83;;;12.50;95.80;;;;;;5011990;28;20045;-47
2023/04/27 06:31:16;;;;;;;7.07;3.25;;;11.90;95.80;;;;;;5011800;28;20025;-48
2023/04/27 06:33:42;;;;;;;7.80;3.63;;;11.90;96.20;;;;;;5011849;28;20030;-49
2023/04/27 06:36:08;;;;;;;6.47;2.80;;;11.50;96.40;;;;;;5011842;28;20022;-51
2023/04/27 06:38:33;;;;;;;3.50;3.20;;;11.10;96.80;;;;;;5012066;28;20109;-52
2023/04/27 06:40:59;;;;;;;13.00;3.50;;;10.60;97.70;;;;;;5011721;28;20033;-51
2023/04/27 06:43:24;;;;;;;8.75;3.22;;;10.20;98.30;;;;;;5011811;28;20097;-51
2023/04/27 06:45:50;;;;;;;5.63;3.25;;;10.00;98.60;;;;;;5011572;28;20157;-48
2023/04/27 06:48:15;;;;;;;9.05;3.10;;;10.80;98.40;;;;;;4993325;28;20068;-50
2023/04/27 06:50:42;;;;;;;10.38;3.42;;;11.60;97.40;;;;;;5011492;28;20022;-52
2023/04/27 06:53:08;;;;;;;4.63;2.38;;;11.80;96.20;;;;;;5011549;28;20033;-53
2023/04/27 06:55:33;;;;;;;6.32;2.63;;;11.10;97.00;;;;;;5011173;28;20030;-50
2023/04/27 06:57:59;;;;;;;9.15;2.92;;;11.70;97.40;;;;;;5011638;28;20025;-50
2023/04/27 07:00:25;;;;;;;10.07;3.20;;;12.30;95.30;;;;;;5011464;28;20100;-48
2023/04/27 07:02:51;;;;;;;4.90;2.50;;;12.70;95.10;;;;;;5011312;28;20096;-48
2023/04/27 07:05:17;;;;;;;4.88;3.15;;;12.60;94.70;;;;;;4993728;28;20117;-50
2023/04/27 07:07:42;;;;;;;5.22;2.70;;;13.70;93.60;;;;;;5011452;28;20022;-50
2023/04/27 07:10:09;;;;;;;8.73;2.67;;;14.00;92.50;;;;;;5011557;28;20029;-48
2023/04/27 07:12:35;;;;;;;3.67;2.83;;;13.00;93.10;;;;;;5011416;28;20449;-49
2023/04/27 07:15:02;;;;;;;7.10;3.47;;;12.60;93.40;;;;;;5011413;28;20025;-46
2023/04/27 07:17:28;;;;;;;5.82;3.17;;;13.50;92.90;;;;;;5012194;28;20065;-53
2023/04/27 07:19:53;;;;;;;7.15;2.63;;;13.40;92.80;;;;;;5012189;28;20104;-50
2023/04/27 07:22:19;;;;;;;6.13;2.78;;;13.20;93.00;;;;;;5012512;28;20026;-50
2023/04/27 07:24:44;;;;;;;9.57;3.25;;;12.80;93.70;;;;;;5011311;28;20494;-51
2023/04/27 07:27:10;;;;;;;5.70;2.47;;;12.60;93.70;;;;;;5011216;28;20062;-46
2023/04/27 07:29:36;;;;;;;10.05;3.60;;;12.50;93.80;;;;;;4993530;28;20555;-48
2023/04/27 07:32:05;;;;;;;10.63;2.60;;;12.60;93.50;;;;;;5010891;28;20105;-48
2023/04/27 07:34:30;;;;;;;4.53;2.58;;;13.20;94.20;;;;;;5011265;28;20022;-50
2023/04/27 07:36:56;;;;;;;6.35;2.85;;;13.80;92.00;;;;;;5011010;28;20030;-49
2023/04/27 07:39:22;;;;;;;4.70;2.40;;;13.40;91.90;;;;;;5011059;28;20088;-49
2023/04/27 07:41:48;;;;;;;6.50;2.78;;;13.30;92.30;;;;;;5011225;28;20032;-49
2023/04/27 07:44:14;;;;;;;5.97;2.65;;;13.60;91.90;;;;;;5011054;28;20014;-45
2023/04/27 07:46:40;;;;;;;11.48;2.72;;;13.90;90.80;;;;;;5010846;28;20108;-47
2023/04/27 07:49:05;;;;;;;11.73;3.60;;;13.90;90.30;;;;;;5010946;28;20040;-50
2023/04/27 07:51:33;;;;;;;4.72;2.83;;;14.20;90.90;;;;;;5010970;28;20076;-50
2023/04/27 07:53:59;;;;;;;7.72;2.58;;;13.90;88.40;;;;;;5011121;28;20030;-51
2023/04/27 07:56:25;;;;;;;3.70;2.30;;;13.60;90.50;;;;;;5010778;28;20080;-49
2023/04/27 07:58:50;;;;;;;6.30;2.25;;;13.50;90.30;;;;;;5012792;28;20037;-49
2023/04/27 08:01:16;;;;;;;6.78;2.35;;;13.20;91.00;;;;;;5014431;28;20022;-52
2023/04/27 08:03:41;;;;;;;6.10;2.20;;;13.10;90.60;;;;;;4997120;28;20022;-47
2023/04/27 08:06:07;;;;;;;6.35;3.35;;;13.40;89.90;;;;;;5014148;28;20029;-47
2023/04/27 08:08:33;;;;;;;7.82;2.50;;;13.60;90.00;;;;;;5014673;28;20094;-49
2023/04/27 08:10:58;;;;;;;4.13;2.53;;;13.80;89.70;;;;;;5014234;28;20498;-53
2023/04/27 08:13:24;;;;;;;3.55;2.22;;;13.90;91.30;;;;;;5014317;28;20037;-48
2023/04/27 08:15:50;;;;;;;4.03;2.25;;;15.00;86.70;;;;;;4996647;28;20040;-47
2023/04/27 08:18:16;;;;;;;8.90;2.20;;;15.60;84.70;;;;;;5014651;28;20152;-47
2023/04/27 08:20:42;;;;;;;5.28;2.47;;;16.70;81.60;;;;;;5014319;28;20026;-48
2023/04/27 08:23:08;;;;;;;3.30;2.30;;;16.70;80.30;;;;;;4996641;28;20025;-48
2023/04/27 08:25:35;;;;;;;5.18;2.40;;;16.90;79.50;;;;;;5005265;28;20386;-45
2023/04/27 08:28:01;;;;;;;3.42;2.65;;;17.50;77.80;;;;;;5018967;28;20037;-48
2023/04/27 08:30:26;;;;;;;2.97;2.47;;;17.60;77.10;;;;;;5001246;28;20073;-48
2023/04/27 08:32:53;;;;;;;3.33;2.28;;;17.30;76.80;;;;;;5010622;28;20022;-51
2023/04/27 08:35:18;;;;;;;4.40;2.65;;;17.20;78.70;;;;;;5013719;28;20022;-53
2023/04/27 08:37:44;;;;;;;9.27;2.50;;;17.40;76.20;;;;;;5013856;28;20029;-51
2023/04/27 08:40:10;;;;;;;3.88;2.28;;;16.00;79.20;;;;;;5012975;28;20486;-50
2023/04/27 08:42:36;;;;;;;5.30;2.72;;;15.70;81.00;;;;;;5013275;28;20065;-51
2023/04/27 08:45:01;;;;;;;6.70;2.50;;;16.90;79.40;;;;;;4995532;28;20022;-53
2023/04/27 08:47:27;;;;;;;4.32;2.67;;;17.10;78.50;;;;;;5013683;28;20026;-53
2023/04/27 08:49:52;;;;;;;4.90;2.00;;;16.70;78.50;;;;;;5027000;28;20061;-49
2023/04/27 08:52:18;;;;;;;4.70;2.38;;;16.90;78.20;;;;;;5013623;28;20021;-53
2023/04/27 08:54:43;;;;;;;4.70;2.38;;;17.00;78.40;;;;;;5013425;28;20041;-50
2023/04/27 08:57:13;;;;;;;5.03;2.50;;;16.60;79.30;;;;;;5013652;28;20022;-48
2023/04/27 08:59:44;;;;;;;4.68;2.33;;;16.30;79.70;;;;;;5013603;28;20393;-49
2023/04/27 09:02:20;;;;;;;6.72;2.38;;;15.90;81.40;;;;;;5006345;28;20027;-52
2023/04/27 09:04:45;;;;;;;;;;;15.10;83.20;;;;;;4994195;28;20097;-51
2023/04/27 09:07:16;;;;;;;12.25;3.08;;;15.00;83.30;;;;;;5032660;28;19996;-47
2023/04/27 09:09:42;;;;;;;10.82;3.85;;;15.50;83.10;;;;;;5032247;28;20455;-47
2023/04/27 09:12:19;;;;;;;6.07;2.58;;;16.10;82.20;;;;;;5033093;28;20049;-49
2023/04/27 09:15:02;;;;;;;5.32;2.63;;;16.50;79.00;;;;;;5032793;28;20083;-52
2023/04/27 09:17:29;;;;;;;5.72;2.60;;;16.30;80.00;;;;;;5012685;28;20064;-49
2023/04/27 09:20:09;;;;;;;10.15;2.92;;;16.20;81.30;;;;;;5012896;28;20026;-51
2023/04/27 09:22:48;;;;;;;6.85;3.90;;;15.90;78.10;;;;;;5013042;28;20117;-51
2023/04/27 09:25:23;;;;;;;5.65;2.60;;;16.30;78.30;;;;;;5012566;28;20026;-46
2023/04/27 09:27:49;;;;;;;4.90;2.67;;;16.60;77.20;;;;;;5000795;28;20050;-52
2023/04/27 09:30:15;;;;;;;6.82;2.35;;;16.70;78.30;;;;;;5011602;28;20525;-53
2023/04/27 09:32:50;;;;;;;14.80;7.82;;;16.70;76.20;;;;;;5012759;28;20021;-50
2023/04/27 09:35:31;;;;;;;11.77;4.13;;;16.70;75.30;;;;;;4994933;28;20059;-51
2023/04/27 09:37:57;;;;;;;15.65;8.23;;;16.80;76.40;;;;;;5012124;28;20034;-51
2023/04/27 09:40:26;;;;;;;10.30;2.65;;;16.80;75.90;;;;;;5012146;28;20028;-53
2023/04/27 09:42:53;;;;;;;11.00;2.95;;;16.90;76.50;;;;;;5011412;28;20068;-53
2023/04/27 09:45:19;;;;;;;6.32;2.42;;;17.10;76.30;;;;;;5012375;28;20065;-50
2023/04/27 09:47:45;;;;;;;9.75;2.65;;;17.40;74.80;;;;;;5012476;28;20072;-53
2023/04/27 09:50:12;;;;;;;8.98;2.53;;;17.10;74.40;;;;;;5011370;28;20026;-49
2023/04/27 09:52:38;;;;;;;4.38;2.35;;;17.20;76.80;;;;;;5012011;28;20029;-59
2023/04/27 09:55:07;;;;;;;4.78;2.78;;;17.30;73.90;;;;;;5010532;28;20026;-55
2023/04/27 09:57:47;;;;;;;6.55;2.53;;;17.10;73.30;;;;;;5011589;28;20520;-52
2023/04/27 10:00:27;;;;;;;10.80;2.63;;;17.10;74.30;;;;;;4996358;28;20018;-52
2023/04/27 10:03:09;;;;;;;5.97;2.60;;;17.10;75.80;;;;;;5012053;28;20040;-57
2023/04/27 10:06:12;;;;;;;4.40;2.20;;;17.10;75.40;;;;;;5011378;28;20030;-50
2023/04/27 10:08:38;;;;;;;7.70;2.42;;;17.20;74.30;;;;;;5008175;28;20030;-53
2023/04/27 10:11:18;;;;;;;3.83;2.80;;;17.30;76.70;;;;;;5010832;28;20038;-53
2023/04/27 10:13:51;;;;;;;6.63;2.90;;;17.00;74.80;;;;;;5011818;28;20506;-52
2023/04/27 10:16:17;;;;;;;4.80;2.38;;;16.90;76.00;;;;;;5010075;28;20077;-53
2023/04/27 10:18:52;;;;;;;9.73;3.00;;;17.00;73.90;;;;;;5012207;28;20022;-56
2023/04/27 10:21:17;;;;;;;7.10;3.30;;;17.00;72.70;;;;;;4974294;28;20585;-52
2023/04/27 10:23:47;;;;;;;6.50;3.33;;;16.80;73.20;;;;;;4992377;28;20054;-52
2023/04/27 10:26:24;;;;;;;9.82;3.30;;;16.60;73.80;;;;;;4992315;28;20026;-53
2023/04/27 10:28:59;;;;;;;3.78;2.80;;;16.60;73.50;;;;;;4994956;28;20022;-54
2023/04/27 10:31:28;;;;;;;10.68;4.45;;;16.70;74.00;;;;;;4994459;28;20030;-53
2023/04/27 10:34:05;;;;;;;5.93;3.78;;;16.80;74.50;;;;;;5011702;28;20042;-57
2023/04/27 10:36:36;;;;;;;6.55;3.58;;;16.60;73.10;;;;;;5011776;28;20025;-52
2023/04/27 10:39:04;;;;;;;6.82;4.03;;;16.40;74.00;;;;;;5011329;28;20550;-50
2023/04/27 10:41:35;;;;;;;7.05;3.53;;;16.20;74.20;;;;;;5011250;28;20072;-48
2023/04/27 10:44:16;;;;;;;5.82;3.90;;;16.10;74.10;;;;;;5011401;28;20049;-49
2023/04/27 10:46:55;;;;;;;11.98;4.18;;;16.00;74.90;;;;;;4993529;28;20028;-49
2023/04/27 10:49:22;;;;;;;8.25;3.50;;;16.20;76.90;;;;;;4994006;28;20444;-50
2023/04/27 10:51:49;;;;;;;14.20;6.85;;;16.40;75.80;;;;;;5011731;28;20392;-48
2023/04/27 10:54:15;;;;;;;26.30;18.02;;;16.50;75.20;;;;;;5011471;28;20053;-47
2023/04/27 10:56:41;;;;;;;8.75;5.68;;;16.70;75.90;;;;;;5011413;28;20054;-47
2023/04/27 10:59:07;;;;;;;6.22;3.22;;;16.80;75.30;;;;;;5011618;28;20068;-51
2023/04/27 11:01:33;;;;;;;4.32;2.67;;;16.60;74.00;;;;;;5011011;28;20018;-54
2023/04/27 11:04:00;;;;;;;6.30;3.05;;;16.70;74.20;;;;;;5011470;28;20048;-47
2023/04/27 11:06:27;;;;;;;5.05;3.63;;;16.80;76.10;;;;;;5011490;28;20022;-52
2023/04/27 11:08:52;;;;;;;4.63;3.63;;;16.90;75.90;;;;;;5011548;28;20050;-46
2023/04/27 11:11:18;;;;;;;4.47;2.80;;;17.00;74.50;;;;;;5011270;28;20137;-51
2023/04/27 11:13:47;;;;;;;12.77;3.17;;;16.90;76.20;;;;;;4993915;28;20030;-48
2023/04/27 11:16:13;;;;;;;9.07;2.67;;;17.00;77.10;;;;;;5011335;28;20398;-48
2023/04/27 11:18:39;;;;;;;9.90;3.45;;;17.10;78.70;;;;;;4993955;28;20022;-52
2023/04/27 11:21:13;;;;;;;5.70;3.15;;;17.10;77.90;;;;;;5011234;28;20033;-50
2023/04/27 11:23:40;;;;;;;9.43;3.25;;;17.30;78.50;;;;;;5011435;28;20439;-49
2023/04/27 11:26:13;;;;;;;7.68;2.97;;;17.40;77.90;;;;;;5011189;28;20508;-48
2023/04/27 11:28:40;;;;;;;7.88;2.85;;;17.40;74.00;;;;;;5011272;28;20099;-47
2023/04/27 11:31:06;;;;;;;9.80;3.30;;;17.30;74.10;;;;;;5010927;28;20029;-51
2023/04/27 11:33:32;;;;;;;6.18;3.13;;;17.30;74.30;;;;;;5012662;28;20021;-55
2023/04/27 11:35:57;;;;;;;7.40;4.18;;;17.30;73.40;;;;;;5014438;28;20026;-50
2023/04/27 11:38:23;;;;;;;4.53;3.05;;;17.30;73.60;;;;;;5014750;28;20543;-50
2023/04/27 11:41:06;;;;;;;6.30;3.35;;;17.20;73.80;;;;;;5014410;28;20030;-54
2023/04/27 11:43:32;;;;;;;5.30;2.40;;;17.20;74.50;;;;;;5014690;28;20029;-51
2023/04/27 11:46:05;;;;;;;8.02;2.95;;;17.30;74.00;;;;;;5014744;28;20025;-55
2023/04/27 11:48:31;;;;;;;7.05;3.53;;;17.30;74.80;;;;;;5015097;28;20033;-51
2023/04/27 11:50:58;;;;;;;9.43;3.47;;;17.30;74.10;;;;;;5014437;28;20026;-54
2023/04/27 11:53:38;;;;;;;8.18;3.78;;;17.00;75.10;;;;;;5014643;28;20029;-52
2023/04/27 11:56:09;;;;;;;6.57;3.65;;;16.70;74.60;;;;;;5014424;28;20026;-52
2023/04/27 11:58:36;;;;;;;8.55;3.22;;;16.80;74.70;;;;;;5014507;28;20490;-55
2023/04/27 12:01:03;;;;;;;7.18;2.88;;;16.80;76.20;;;;;;5014246;28;20029;-52
2023/04/27 12:03:29;;;;;;;9.07;3.25;;;16.80;75.30;;;;;;5014931;28;20021;-51
2023/04/27 12:05:55;;;;;;;7.93;3.42;;;16.80;76.00;;;;;;5014378;28;20041;-48
2023/04/27 12:08:21;;;;;;;16.95;11.10;;;17.00;75.80;;;;;;5014464;28;20029;-55
2023/04/27 12:10:47;;;;;;;11.07;6.00;;;17.00;75.80;;;;;;5014056;28;20025;-54
2023/04/27 12:13:13;;;;;;;16.55;8.55;;;17.10;75.00;;;;;;5014490;28;20022;-50
2023/04/27 12:15:39;;;;;;;9.07;3.03;;;17.20;75.20;;;;;;5014250;28;20022;-49
2023/04/27 12:18:05;;;;;;;6.53;2.85;;;17.10;74.70;;;;;;5014544;28;20092;-50
2023/04/27 12:20:30;;;;;;;7.32;2.95;;;16.70;73.90;;;;;;5014706;28;20062;-51
2023/04/27 12:22:56;;;;;;;8.52;3.20;;;16.80;76.10;;;;;;5013991;28;20025;-51
2023/04/27 12:25:22;;;;;;;6.63;3.00;;;16.80;75.40;;;;;;4996289;28;20445;-49
2023/04/27 12:27:48;;;;;;;8.73;3.35;;;16.80;74.70;;;;;;5014080;28;20022;-51
2023/04/27 12:30:14;;;;;;;10.20;3.10;;;16.80;74.40;;;;;;5013978;28;20061;-53
2023/04/27 12:32:40;;;;;;;5.57;3.05;;;16.80;75.00;;;;;;5014278;28;20061;-48
2023/04/27 12:35:07;;;;;;;5.38;2.30;;;16.80;76.10;;;;;;5013857;28;20026;-54
2023/04/27 12:37:33;;;;;;;5.47;2.67;;;16.90;76.30;;;;;;5013901;28;20144;-54
2023/04/27 12:39:58;;;;;;;13.10;2.80;;;17.00;74.30;;;;;;5013780;28;20061;-51
2023/04/27 12:42:24;;;;;;;5.47;2.78;;;17.00;74.90;;;;;;5013828;28;20104;-55
2023/04/27 12:44:51;;;;;;;9.88;2.65;;;17.10;74.10;;;;;;5012466;28;20611;-50
2023/04/27 12:47:17;;;;;;;5.28;2.03;;;17.20;73.30;;;;;;5013982;28;20049;-55